createdAt,value
2023-02-15T00:00:18.116Z,95.55
2023-02-15T00:02:54.335Z,91.10
2023-02-15T00:05:27.287Z,86.75
2023-02-15T00:08:08.430Z,90.60
2023-02-15T00:11:04.506Z,86.15
2023-02-15T00:13:43.709Z,94.88
2023-02-15T00:16:19.088Z,89.15
2023-02-15T00:18:52.052Z,81.25
2023-02-15T00:24:47.408Z,84.10
2023-02-15T00:27:49.791Z,92.05
2023-02-15T00:30:33.844Z,82.05
2023-02-15T00:33:09.109Z,88.88
2023-02-15T00:36:13.019Z,85.40
2023-02-15T00:38:50.542Z,85.88
2023-02-15T00:41:52.767Z,79.15
2023-02-15T00:44:34.218Z,89.18
2023-02-15T00:47:38.952Z,73.60
2023-02-15T00:50:13.207Z,81.85
2023-02-15T00:56:00.233Z,80.20
2023-02-15T00:58:35.419Z,80.18
2023-02-15T01:01:28.580Z,82.10
2023-02-15T01:04:30.078Z,83.18
2023-02-15T01:07:26.061Z,84.53
2023-02-15T01:10:08.199Z,85.82
2023-02-15T01:12:49.752Z,84.40
2023-02-15T01:15:45.049Z,75.97
2023-02-15T01:18:39.891Z,79.28
2023-02-15T01:21:24.547Z,75.72
2023-02-15T01:24:32.387Z,83.50
2023-02-15T01:27:37.945Z,85.53
2023-02-15T01:30:28.943Z,92.03
2023-02-15T01:33:21.956Z,86.80
2023-02-15T01:36:35.385Z,69.55
2023-02-15T01:39:31.536Z,83.85
2023-02-15T01:42:25.298Z,86.18
2023-02-15T01:45:02.342Z,87.20
2023-02-15T01:47:39.524Z,89.40
2023-02-15T01:50:23.876Z,89.18
2023-02-15T01:52:59.440Z,92.45
2023-02-15T01:55:36.503Z,81.20
2023-02-15T01:58:07.143Z,85.53
2023-02-15T02:00:40.582Z,88.05
2023-02-15T02:03:35.150Z,91.72
2023-02-15T02:06:24.680Z,81.65
2023-02-15T02:08:59.231Z,86.38
2023-02-15T02:11:35.503Z,80.30
2023-02-15T02:14:24.090Z,81.43
2023-02-15T02:17:18.662Z,91.10
2023-02-15T02:20:42.149Z,91.75
2023-02-15T02:23:58.052Z,81.57
2023-02-15T02:27:06.284Z,95.40
2023-02-15T02:30:27.956Z,91.18
2023-02-15T02:33:58.343Z,92.20
2023-02-15T02:36:53.837Z,88.15
2023-02-15T02:39:39.045Z,97.50
2023-02-15T02:42:15.996Z,91.60
2023-02-15T02:45:04.634Z,83.28
2023-02-15T02:47:40.903Z,87.20
2023-02-15T02:50:21.671Z,85.80
2023-02-15T02:53:34.589Z,81.03
2023-02-15T02:56:19.977Z,89.20
2023-02-15T02:59:02.420Z,93.30
2023-02-15T03:01:42.883Z,90.38
2023-02-15T03:04:20.285Z,83.47
2023-02-15T03:07:07.520Z,92.25
2023-02-15T03:09:47.656Z,86.60
2023-02-15T03:12:44.844Z,84.63
2023-02-15T03:15:54.218Z,87.93
2023-02-15T03:21:51.186Z,88.63
2023-02-15T03:24:32.988Z,84.75
2023-02-15T03:27:31.229Z,86.13
2023-02-15T03:30:25.195Z,88.82
2023-02-15T03:33:08.135Z,84.18
2023-02-15T03:36:04.320Z,92.25
2023-02-15T03:38:51.478Z,83.47
2023-02-15T03:41:44.787Z,92.57
2023-02-15T03:47:43.699Z,94.05
2023-02-15T03:50:35.168Z,99.45
2023-02-15T03:53:21.947Z,92.85
2023-02-15T03:56:05.635Z,88.07
2023-02-15T03:59:22.725Z,95.80
2023-02-15T04:02:34.316Z,92.13
2023-02-15T04:05:06.330Z,90.25
2023-02-15T04:07:46.466Z,91.80
2023-02-15T04:10:40.514Z,97.18
2023-02-15T04:13:28.950Z,94.50
2023-02-15T04:16:31.707Z,92.63
2023-02-15T04:19:59.515Z,96.70
2023-02-15T04:22:58.519Z,93.57
2023-02-15T04:25:43.209Z,88.82
2023-02-15T04:29:12.941Z,86.03
2023-02-15T04:35:52.427Z,92.15
2023-02-15T04:38:56.806Z,84.40
2023-02-15T04:42:01.661Z,86.38
2023-02-15T04:45:15.064Z,98.00
2023-02-15T04:48:17.358Z,89.50
2023-02-15T04:51:28.412Z,88.60
2023-02-15T04:54:07.789Z,84.93
2023-02-15T04:57:11.370Z,85.53
2023-02-15T04:59:56.311Z,89.15
2023-02-15T05:06:15.247Z,87.05
2023-02-15T05:09:23.484Z,87.57
2023-02-15T05:12:01.536Z,92.63
2023-02-15T05:14:54.980Z,81.80
2023-02-15T05:18:01.950Z,86.72
2023-02-15T05:21:06.334Z,94.70
2023-02-15T05:27:36.321Z,86.85
2023-02-15T05:34:48.171Z,82.28
2023-02-15T05:37:38.128Z,83.43
2023-02-15T05:40:36.378Z,81.40
2023-02-15T05:43:31.092Z,90.78
2023-02-15T05:46:16.908Z,98.47
2023-02-15T05:52:23.130Z,76.13
2023-02-15T05:55:31.635Z,75.80
2023-02-15T05:59:06.278Z,78.30
2023-02-15T06:05:31.127Z,64.63
2023-02-15T06:08:09.318Z,75.90
2023-02-15T06:11:04.230Z,74.65
2023-02-15T06:13:55.398Z,71.80
2023-02-15T06:16:44.251Z,82.40
2023-02-15T06:19:47.913Z,80.47
2023-02-15T06:22:29.909Z,79.32
2023-02-15T06:25:07.806Z,81.50
2023-02-15T06:27:52.436Z,92.63
2023-02-15T06:31:01.829Z,88.45
2023-02-15T06:34:12.682Z,89.22
2023-02-15T06:37:03.670Z,86.38
2023-02-15T06:39:56.305Z,79.43
2023-02-15T06:46:26.100Z,85.38
2023-02-15T06:49:20.143Z,70.68
2023-02-15T06:52:14.308Z,80.13
2023-02-15T06:58:54.230Z,78.95
2023-02-15T07:02:02.439Z,74.25
2023-02-15T07:04:57.285Z,79.53
2023-02-15T07:07:43.551Z,76.18
2023-02-15T07:10:39.038Z,59.40
2023-02-15T07:13:42.242Z,56.70
2023-02-15T07:19:17.441Z,69.47
2023-02-15T07:25:47.433Z,81.97
2023-02-15T07:28:42.668Z,91.53
2023-02-15T07:31:41.320Z,75.75
2023-02-15T07:48:26.198Z,79.53
2023-02-15T07:51:05.108Z,75.60
2023-02-15T07:53:44.203Z,82.35
2023-02-15T07:56:26.118Z,81.70
2023-02-15T07:58:59.156Z,82.43
2023-02-15T08:01:40.900Z,67.75
2023-02-15T08:04:10.536Z,79.97
2023-02-15T08:06:41.932Z,72.15
2023-02-15T08:09:11.911Z,70.18
2023-02-15T08:11:41.900Z,83.80
2023-02-15T08:14:12.261Z,72.28
2023-02-15T08:16:44.032Z,69.95
2023-02-15T08:19:16.786Z,65.80
2023-02-15T08:21:47.249Z,65.03
2023-02-15T08:24:17.811Z,68.13
2023-02-15T08:26:47.777Z,64.22
2023-02-15T08:29:18.234Z,68.18
2023-02-15T08:31:48.439Z,63.53
2023-02-15T08:34:18.442Z,61.65
2023-02-15T08:36:47.296Z,62.45
2023-02-15T08:39:16.489Z,65.78
2023-02-15T08:41:46.109Z,63.67
2023-02-15T08:44:14.699Z,68.07
2023-02-15T08:46:44.850Z,74.35
2023-02-15T08:49:17.099Z,62.75
2023-02-15T08:51:45.653Z,63.05
2023-02-15T08:54:16.784Z,64.43
2023-02-15T08:56:46.031Z,65.38
2023-02-15T08:59:17.470Z,63.58
2023-02-15T09:01:46.529Z,71.97
2023-02-15T09:04:16.853Z,81.50
2023-02-15T09:06:48.312Z,64.07
2023-02-15T09:09:17.209Z,60.78
2023-02-15T09:11:57.657Z,65.18
2023-02-15T09:14:28.332Z,66.93
2023-02-15T09:16:57.121Z,63.40
2023-02-15T09:19:30.041Z,61.25
2023-02-15T09:21:59.154Z,63.85
2023-02-15T09:24:27.463Z,68.57
2023-02-15T09:26:56.435Z,62.58
2023-02-15T09:29:25.464Z,67.68
2023-02-15T09:31:54.753Z,75.85
2023-02-15T09:34:24.456Z,68.78
2023-02-15T09:36:54.783Z,68.65
2023-02-15T09:39:25.581Z,65.03
2023-02-15T09:42:34.233Z,62.60
2023-02-15T09:45:18.213Z,60.85
2023-02-15T09:48:12.292Z,72.40
2023-02-15T09:50:49.995Z,56.17
2023-02-15T09:53:37.015Z,64.90
2023-02-15T09:56:12.502Z,56.47
2023-02-15T09:58:52.128Z,53.67
2023-02-15T10:01:31.448Z,52.53
2023-02-15T10:04:17.099Z,57.17
2023-02-15T10:06:57.794Z,60.87
2023-02-15T10:09:43.374Z,60.50
2023-02-15T10:12:27.208Z,57.10
2023-02-15T10:15:10.316Z,62.80
2023-02-15T10:17:57.050Z,75.03
2023-02-15T10:20:35.370Z,66.72
2023-02-15T10:23:18.442Z,64.22
2023-02-15T10:25:54.003Z,66.13
2023-02-15T10:28:26.837Z,68.05
2023-02-15T10:31:01.455Z,69.18
2023-02-15T10:33:41.370Z,65.30
2023-02-15T10:36:23.332Z,64.82
2023-02-15T10:38:56.185Z,73.40
2023-02-15T10:41:35.438Z,65.70
2023-02-15T10:44:20.507Z,59.38
2023-02-15T10:47:13.327Z,60.55
2023-02-15T10:49:53.181Z,62.10
2023-02-15T10:52:32.238Z,58.70
2023-02-15T10:55:10.764Z,55.90
2023-02-15T10:57:50.229Z,62.17
2023-02-15T11:00:24.213Z,56.85
2023-02-15T11:03:07.950Z,56.75
2023-02-15T11:05:46.612Z,57.83
2023-02-15T11:08:15.144Z,58.97
2023-02-15T11:10:48.639Z,51.70
2023-02-15T11:13:21.145Z,54.30
2023-02-15T11:15:55.336Z,56.42
2023-02-15T11:18:31.340Z,52.75
2023-02-15T11:21:04.508Z,56.75
2023-02-15T11:23:36.287Z,55.08
2023-02-15T11:26:06.276Z,55.60
2023-02-15T11:29:07.856Z,56.15
2023-02-15T11:34:34.107Z,59.95
2023-02-15T11:37:07.483Z,57.95
2023-02-15T11:39:38.451Z,63.08
2023-02-15T11:42:14.872Z,58.38
2023-02-15T11:44:51.879Z,57.38
2023-02-15T11:47:20.219Z,59.22
2023-02-15T11:49:48.734Z,56.42
2023-02-15T11:52:19.982Z,57.88
2023-02-15T11:54:51.819Z,55.92
2023-02-15T11:57:25.658Z,57.47
2023-02-15T12:00:02.712Z,55.85
2023-02-15T12:02:34.145Z,55.63
2023-02-15T12:05:07.903Z,60.10
2023-02-15T12:07:40.329Z,65.00
2023-02-15T12:10:22.219Z,61.75
2023-02-15T12:12:50.811Z,59.83
2023-02-15T12:15:34.142Z,60.33
2023-02-15T12:18:03.708Z,71.00
2023-02-15T12:20:38.437Z,61.55
2023-02-15T12:23:14.804Z,65.25
2023-02-15T12:25:46.610Z,66.65
2023-02-15T12:28:27.725Z,63.55
2023-02-15T12:30:58.695Z,63.38
2023-02-15T12:33:32.529Z,62.85
2023-02-15T12:36:07.396Z,63.85
2023-02-15T12:38:36.965Z,62.08
2023-02-15T12:41:07.599Z,61.88
2023-02-15T12:43:40.362Z,64.88
2023-02-15T12:46:26.535Z,64.25
2023-02-15T12:49:09.918Z,62.80
2023-02-15T12:51:49.993Z,65.82
2023-02-15T12:54:41.162Z,61.05
2023-02-15T12:57:26.617Z,62.67
2023-02-15T12:59:57.867Z,63.45
2023-02-15T13:02:32.258Z,67.47
2023-02-15T13:05:10.534Z,1052.80
2023-02-15T13:07:39.950Z,927.00
2023-02-15T13:10:23.897Z,696.50
2023-02-15T13:12:55.126Z,233.85
2023-02-15T13:15:35.028Z,73.60
2023-02-15T13:18:07.052Z,137.98
2023-02-15T13:20:41.651Z,456.85
2023-02-15T13:23:23.754Z,76.45
2023-02-15T13:25:52.669Z,494.13
2023-02-15T13:28:25.268Z,467.17
2023-02-15T13:30:53.726Z,1360.38
2023-02-15T13:33:28.842Z,2250.00
2023-02-15T13:36:08.731Z,1587.88
2023-02-15T13:39:00.140Z,519.42
2023-02-15T13:41:36.289Z,472.65
2023-02-15T13:44:13.631Z,201.68
2023-02-15T13:46:54.583Z,437.27
2023-02-15T13:49:39.851Z,119.05
2023-02-15T13:52:16.655Z,345.60
2023-02-15T13:55:18.096Z,299.77
2023-02-15T13:58:08.967Z,337.40
2023-02-15T14:00:43.303Z,152.13
2023-02-15T14:03:38.831Z,129.55
2023-02-15T14:06:31.519Z,89.78
2023-02-15T14:09:11.873Z,116.32
2023-02-15T14:11:49.441Z,131.73
2023-02-15T14:14:42.036Z,85.95
2023-02-15T14:17:18.882Z,85.15
2023-02-15T14:19:51.115Z,116.90
2023-02-15T14:22:28.180Z,146.50
2023-02-15T14:25:14.435Z,1403.80
2023-02-15T14:27:53.183Z,197.10
2023-02-15T14:30:25.792Z,324.88
2023-02-15T14:32:56.210Z,510.67
2023-02-15T14:35:27.488Z,170.23
2023-02-15T14:38:04.164Z,106.97
2023-02-15T14:41:00.508Z,250.40
2023-02-15T14:43:45.974Z,96.60
2023-02-15T14:46:25.953Z,95.15
2023-02-15T14:48:56.976Z,602.65
2023-02-15T14:51:57.946Z,136.15
2023-02-15T14:55:01.226Z,138.40
2023-02-15T14:57:35.381Z,357.70
2023-02-15T15:00:26.501Z,101.15
2023-02-15T15:02:55.781Z,182.48
2023-02-15T15:05:30.818Z,206.63
2023-02-15T15:08:02.261Z,180.40
2023-02-15T15:10:46.529Z,110.28
2023-02-15T15:13:39.790Z,342.70
2023-02-15T15:16:27.741Z,175.02
2023-02-15T15:18:56.593Z,79.72
2023-02-15T15:21:57.587Z,88.82
2023-02-15T15:24:52.110Z,131.88
2023-02-15T15:27:56.832Z,121.93
2023-02-15T15:31:02.224Z,177.18
2023-02-15T15:34:18.996Z,99.43
2023-02-15T15:37:29.175Z,92.93
2023-02-15T15:40:56.469Z,103.75
2023-02-15T15:43:51.397Z,122.80
2023-02-15T15:47:04.452Z,122.72
2023-02-15T15:49:35.257Z,143.27
2023-02-15T15:52:04.962Z,138.98
2023-02-15T15:54:33.613Z,166.23
2023-02-15T15:57:18.143Z,127.07
2023-02-15T15:59:51.487Z,113.05
2023-02-15T16:02:20.375Z,200.65
2023-02-15T16:04:53.782Z,197.68
2023-02-15T16:07:28.890Z,172.75
2023-02-15T16:09:59.522Z,100.85
2023-02-15T16:12:32.441Z,110.47
2023-02-15T16:15:04.934Z,127.95
2023-02-15T16:17:35.368Z,99.10
2023-02-15T16:20:08.465Z,104.97
2023-02-15T16:22:37.807Z,119.40
2023-02-15T16:25:32.157Z,106.15
2023-02-15T16:28:17.845Z,115.05
2023-02-15T16:30:46.767Z,105.63
2023-02-15T16:33:21.441Z,102.28
2023-02-15T16:36:04.751Z,110.78
2023-02-15T16:39:13.938Z,115.13
2023-02-15T16:41:47.464Z,114.25
2023-02-15T16:44:23.131Z,135.63
2023-02-15T16:50:15.296Z,101.43
2023-02-15T16:53:01.200Z,169.25
2023-02-15T16:55:55.074Z,144.05
2023-02-15T16:58:49.684Z,109.80
2023-02-15T17:01:59.299Z,106.70
2023-02-15T17:04:51.507Z,116.32
2023-02-15T17:07:32.353Z,109.80
2023-02-15T17:10:30.601Z,104.68
2023-02-15T17:13:27.985Z,101.32
2023-02-15T17:16:41.498Z,124.20
2023-02-15T17:19:17.331Z,126.03
2023-02-15T17:21:55.764Z,161.27
2023-02-15T17:24:47.792Z,114.80
2023-02-15T17:27:34.330Z,133.63
2023-02-15T17:30:19.257Z,131.32
2023-02-15T17:33:04.741Z,110.75
2023-02-15T17:36:10.882Z,136.98
2023-02-15T17:39:36.200Z,100.35
2023-02-15T17:42:11.432Z,107.00
2023-02-15T17:44:49.005Z,114.90
2023-02-15T17:47:27.938Z,96.15
2023-02-15T17:50:05.604Z,116.05
2023-02-15T17:52:41.984Z,126.53
2023-02-15T17:59:20.080Z,103.85
2023-02-15T18:02:24.433Z,113.05
2023-02-15T18:05:22.076Z,103.13
2023-02-15T18:11:17.779Z,108.93
2023-02-15T18:14:08.156Z,87.53
2023-02-15T18:19:47.263Z,111.43
2023-02-15T18:25:13.097Z,104.38
2023-02-15T18:28:33.612Z,107.22
2023-02-15T18:31:08.031Z,115.85
2023-02-15T18:33:51.717Z,120.88
2023-02-15T18:36:43.821Z,117.10
2023-02-15T18:39:38.728Z,133.95
2023-02-15T18:42:30.831Z,126.57
2023-02-15T18:45:24.711Z,141.05
2023-02-15T18:48:27.141Z,123.22
2023-02-15T18:51:18.927Z,153.95
2023-02-15T18:53:58.107Z,122.32
2023-02-15T18:56:33.418Z,126.43
2023-02-15T18:59:47.782Z,122.38
2023-02-15T19:02:25.851Z,95.63
2023-02-15T19:05:11.005Z,114.65
2023-02-15T19:08:06.888Z,103.38
2023-02-15T19:11:09.834Z,114.78
2023-02-15T19:14:00.841Z,120.20
2023-02-15T19:16:54.168Z,116.15
2023-02-15T19:19:39.302Z,116.93
2023-02-15T19:22:18.071Z,116.22
2023-02-15T19:25:01.037Z,112.50
2023-02-15T19:27:37.429Z,119.90
2023-02-15T19:30:21.155Z,127.68
2023-02-15T19:32:56.366Z,117.38
2023-02-15T19:35:40.276Z,120.32
2023-02-15T19:38:22.729Z,122.38
2023-02-15T19:41:07.744Z,103.75
2023-02-15T19:47:34.752Z,103.97
2023-02-15T19:50:52.693Z,112.07
2023-02-15T19:54:18.065Z,118.32
2023-02-15T19:56:57.017Z,117.00
2023-02-15T19:59:41.429Z,123.82
2023-02-15T20:02:18.105Z,118.25
2023-02-15T20:04:54.303Z,108.35
2023-02-15T20:10:40.033Z,120.50
2023-02-15T20:13:29.093Z,119.80
2023-02-15T20:16:06.307Z,110.05
2023-02-15T20:18:49.429Z,123.32
2023-02-15T20:21:25.511Z,115.28
2023-02-15T20:24:08.150Z,111.25
2023-02-15T21:16:24.364Z,117.63
2023-02-15T21:19:42.666Z,112.55
2023-02-15T21:30:45.860Z,115.63
2023-02-15T21:37:23.166Z,110.78
2023-02-15T21:40:42.809Z,101.70
2023-02-15T21:47:29.420Z,107.43
2023-02-15T21:50:46.087Z,101.00
2023-02-15T22:15:20.434Z,95.70
2023-02-15T22:22:18.821Z,94.15
2023-02-15T22:25:14.980Z,95.05
2023-02-15T22:28:02.261Z,90.32
2023-02-15T22:31:10.341Z,87.65
2023-02-15T22:41:22.734Z,83.88
2023-02-15T22:44:20.176Z,93.15
2023-02-15T22:47:55.948Z,88.78
2023-02-15T22:51:03.376Z,94.03
2023-02-15T22:54:08.288Z,87.00
2023-02-15T23:13:49.807Z,92.38
2023-02-15T23:16:30.211Z,84.07
2023-02-15T23:19:16.918Z,95.43
2023-02-15T23:21:56.950Z,104.00
2023-02-15T23:24:49.266Z,100.97
2023-02-15T23:28:03.833Z,101.00
2023-02-15T23:33:58.574Z,89.15
2023-02-15T23:37:00.837Z,93.50
2023-02-15T23:39:57.395Z,88.47
2023-02-15T23:42:54.546Z,77.00
2023-02-15T23:45:41.535Z,66.20
2023-02-15T23:52:30.570Z,92.50
2023-02-15T23:55:05.321Z,83.63
2023-02-15T23:58:01.583Z,78.30
